Time;durP1;ratioP1;P1;durP2;ratioP2;P2;SDS_P1;SDS_P2;PMS_P1;PMS_P2;Temp;Humidity;BMP_temperature;BMP_pressure;BME280_temperature;BME280_humidity;BME280_pressure;Samples;Min_cycle;Max_cycle;Signal;HPM_P1;HPM_P2
2022/04/03 00:01:37;;;;;;;6.80;4.43;;;2.30;99.90;;;;;;4987641;28;20043;-67
2022/04/03 00:04:03;;;;;;;6.80;4.75;;;2.20;99.90;;;;;;4988287;28;20129;-67
2022/04/03 00:06:28;;;;;;;7.68;4.85;;;2.20;99.90;;;;;;4988676;28;20058;-67
2022/04/03 00:08:56;;;;;;;7.57;4.70;;;2.20;99.90;;;;;;4988875;28;20046;-68
2022/04/03 00:11:22;;;;;;;12.43;5.05;;;2.20;99.90;;;;;;4986811;28;20538;-68
2022/04/03 00:13:49;;;;;;;8.75;5.10;;;2.20;99.90;;;;;;4971266;28;20136;-68
2022/04/03 00:16:15;;;;;;;10.15;4.72;;;2.10;99.90;;;;;;4972607;28;20125;-68
2022/04/03 00:18:41;;;;;;;8.45;5.00;;;2.10;99.90;;;;;;4988695;28;20112;-68
2022/04/03 00:21:06;;;;;;;8.10;4.70;;;2.10;99.90;;;;;;4988577;28;20046;-68
2022/04/03 00:23:32;;;;;;;7.75;4.60;;;2.10;99.90;;;;;;4988679;28;20061;-68
2022/04/03 00:25:58;;;;;;;8.20;5.20;;;2.10;99.90;;;;;;4987209;28;20092;-68
2022/04/03 00:28:26;;;;;;;7.45;5.30;;;2.00;99.90;;;;;;4988229;28;20042;-68
2022/04/03 00:30:52;;;;;;;8.23;5.43;;;2.00;99.90;;;;;;4987798;28;20050;-68
2022/04/03 00:33:17;;;;;;;7.57;5.13;;;2.50;99.90;;;;;;4988040;28;20050;-67
2022/04/03 00:35:43;;;;;;;8.05;5.18;;;2.00;99.90;;;;;;4989990;28;20030;-67
2022/04/03 00:38:08;;;;;;;10.38;4.90;;;2.00;99.90;;;;;;4973345;28;20421;-67
2022/04/03 00:40:34;;;;;;;10.10;4.97;;;2.00;99.90;;;;;;4985767;28;20034;-68
2022/04/03 00:43:00;;;;;;;8.55;4.57;;;2.00;99.90;;;;;;4987849;28;20050;-67
2022/04/03 00:45:26;;;;;;;7.97;4.70;;;1.90;99.90;;;;;;4988499;28;20034;-67
2022/04/03 00:47:53;;;;;;;7.82;4.30;;;2.60;99.90;;;;;;4988195;28;20487;-68
2022/04/03 00:50:20;;;;;;;5.78;4.00;;;1.80;99.90;;;;;;4988181;28;20474;-68
2022/04/03 00:52:46;;;;;;;6.75;4.10;;;1.70;99.90;;;;;;4970095;28;20043;-68
2022/04/03 00:55:12;;;;;;;6.75;4.85;;;1.70;99.90;;;;;;4988001;28;20392;-68
2022/04/03 00:57:40;;;;;;;7.15;4.07;;;1.80;99.90;;;;;;4987290;28;20236;-68
2022/04/03 01:00:06;;;;;;;7.75;3.70;;;1.80;99.90;;;;;;4988462;28;20109;-68
2022/04/03 01:02:32;;;;;;;7.05;3.88;;;1.80;99.90;;;;;;4989017;28;20046;-68
2022/04/03 01:04:58;;;;;;;6.88;3.65;;;1.80;99.90;;;;;;4970861;28;20050;-68
2022/04/03 01:07:24;;;;;;;6.25;3.75;;;1.80;99.90;;;;;;4987261;28;20092;-68
2022/04/03 01:09:49;;;;;;;6.85;4.00;;;1.80;99.90;;;;;;4988165;28;20058;-69
2022/04/03 01:12:15;;;;;;;7.93;3.75;;;1.70;99.90;;;;;;4969997;28;20054;-68
2022/04/03 01:14:43;;;;;;;6.78;4.22;;;1.70;99.90;;;;;;4983994;28;20042;-68
2022/04/03 01:17:13;;;;;;;10.20;4.20;;;1.70;99.90;;;;;;4988557;28;20042;-68
2022/04/03 01:19:40;;;;;;;5.00;3.20;;;1.70;99.90;;;;;;4992002;28;20046;-69
2022/04/03 01:22:06;;;;;;;5.55;3.40;;;1.70;99.90;;;;;;4990856;28;20519;-67
2022/04/03 01:24:32;;;;;;;5.57;3.30;;;1.60;99.90;;;;;;4974409;28;20152;-68
2022/04/03 01:26:57;;;;;;;5.80;3.35;;;1.60;99.90;;;;;;4956868;28;20457;-68
2022/04/03 01:29:23;;;;;;;7.35;3.53;;;1.60;99.90;;;;;;4991064;28;20100;-67
2022/04/03 01:31:50;;;;;;;5.70;3.63;;;1.60;99.90;;;;;;4991239;28;20157;-68
2022/04/03 01:34:17;;;;;;;5.32;3.20;;;1.60;99.90;;;;;;4991975;28;20035;-68
2022/04/03 01:36:43;;;;;;;6.47;3.40;;;1.60;99.90;;;;;;4972738;28;20042;-68
2022/04/03 01:39:10;;;;;;;8.05;3.58;;;1.60;99.90;;;;;;4992101;28;20510;-68
2022/04/03 01:41:40;;;;;;;7.45;3.50;;;1.60;99.90;;;;;;4989331;28;20620;-68
2022/04/03 01:44:07;;;;;;;5.53;3.58;;;1.90;99.90;;;;;;4992505;28;20134;-68
2022/04/03 01:46:33;;;;;;;7.20;3.70;;;1.60;99.90;;;;;;4991929;28;20447;-68
2022/04/03 01:48:58;;;;;;;6.90;3.58;;;1.60;99.90;;;;;;4991088;28;20054;-68
2022/04/03 01:51:24;;;;;;;5.78;3.47;;;1.50;99.90;;;;;;4975252;28;20452;-68
2022/04/03 01:53:50;;;;;;;5.93;3.60;;;1.60;99.90;;;;;;4984201;28;20419;-68
2022/04/03 01:56:15;;;;;;;8.23;3.60;;;1.60;99.90;;;;;;4972523;28;20050;-68
2022/04/03 01:58:41;;;;;;;7.50;3.30;;;1.70;99.90;;;;;;4990540;28;20042;-68
2022/04/03 02:01:07;;;;;;;6.25;3.50;;;1.80;99.90;;;;;;4973426;28;20097;-68
2022/04/03 02:03:32;;;;;;;5.93;3.20;;;1.80;99.90;;;;;;4990416;28;20034;-68
2022/04/03 02:05:58;;;;;;;6.80;3.30;;;1.80;99.90;;;;;;4990710;28;20054;-68
2022/04/03 02:08:25;;;;;;;6.13;3.10;;;1.80;99.90;;;;;;4972899;28;20058;-68
2022/04/03 02:10:51;;;;;;;7.50;3.38;;;1.90;99.90;;;;;;4990915;28;20034;-68
2022/04/03 02:13:17;;;;;;;5.32;3.22;;;2.00;99.90;;;;;;4989656;28;20050;-68
2022/04/03 02:15:43;;;;;;;5.97;3.40;;;2.00;99.90;;;;;;4991047;28;20040;-69
2022/04/03 02:18:09;;;;;;;5.57;3.20;;;2.00;99.90;;;;;;4989779;28;20387;-69
2022/04/03 02:20:36;;;;;;;6.05;3.03;;;2.00;99.90;;;;;;4991067;28;20050;-68
2022/04/03 02:23:03;;;;;;;5.78;3.15;;;2.10;99.90;;;;;;4991991;28;20064;-67
2022/04/03 02:25:29;;;;;;;5.90;3.40;;;2.10;99.90;;;;;;4989575;28;20100;-67
2022/04/03 02:27:56;;;;;;;6.07;3.70;;;2.10;99.90;;;;;;4989241;28;20046;-68
2022/04/03 02:30:21;;;;;;;5.25;3.60;;;2.20;99.90;;;;;;4993405;28;20114;-67
2022/04/03 02:32:47;;;;;;;8.02;3.17;;;2.20;99.90;;;;;;4991698;28;20554;-66
2022/04/03 02:35:13;;;;;;;5.30;3.40;;;2.20;99.90;;;;;;4993171;28;20484;-68
2022/04/03 02:37:41;;;;;;;5.35;3.20;;;2.20;99.90;;;;;;4975663;28;20092;-68
2022/04/03 02:40:09;;;;;;;6.95;3.55;;;2.20;99.90;;;;;;4969848;28;20137;-68
2022/04/03 02:42:35;;;;;;;10.07;3.58;;;2.20;99.90;;;;;;4989185;28;20054;-68
2022/04/03 02:45:01;;;;;;;5.65;3.45;;;2.20;99.90;;;;;;4990057;28;20092;-68
2022/04/03 02:47:27;;;;;;;6.70;3.50;;;2.30;99.90;;;;;;4990574;28;20081;-68
2022/04/03 02:49:53;;;;;;;4.53;3.28;;;2.30;99.90;;;;;;4990562;28;20046;-68
2022/04/03 02:52:20;;;;;;;6.32;3.50;;;2.30;99.90;;;;;;4973490;28;20038;-68
2022/04/03 02:54:46;;;;;;;6.63;3.80;;;2.30;99.90;;;;;;4989500;28;20042;-68
2022/04/03 02:57:12;;;;;;;6.82;3.28;;;2.30;99.90;;;;;;4971252;28;20062;-68
2022/04/03 02:59:38;;;;;;;5.43;2.90;;;2.30;99.90;;;;;;4989637;28;20043;-68
2022/04/03 03:02:04;;;;;;;3.63;2.42;;;2.30;99.90;;;;;;4990253;28;20053;-68
2022/04/03 03:04:31;;;;;;;7.72;2.53;;;2.30;99.90;;;;;;4956426;28;20043;-68
2022/04/03 03:06:57;;;;;;;3.70;2.17;;;2.40;99.90;;;;;;4990562;28;20388;-68
2022/04/03 03:09:23;;;;;;;3.35;1.73;;;2.40;99.90;;;;;;4975826;28;20042;-68
2022/04/03 03:11:49;;;;;;;2.90;1.88;;;2.30;99.90;;;;;;4988106;28;20380;-69
2022/04/03 03:14:15;;;;;;;2.63;1.80;;;2.50;99.90;;;;;;4971370;28;20093;-68
2022/04/03 03:16:40;;;;;;;3.35;2.00;;;2.50;99.90;;;;;;4972024;28;20042;-68
2022/04/03 03:19:06;;;;;;;4.85;2.40;;;2.50;99.90;;;;;;4992195;28;20041;-68
2022/04/03 03:21:31;;;;;;;3.85;2.13;;;2.50;99.90;;;;;;4991591;28;20042;-68
2022/04/03 03:23:57;;;;;;;5.60;2.45;;;2.50;99.90;;;;;;4990159;28;20129;-68
2022/04/03 03:26:22;;;;;;;6.43;2.20;;;2.50;99.90;;;;;;4988163;28;20062;-68
2022/04/03 03:28:48;;;;;;;3.78;2.00;;;2.50;99.90;;;;;;4990254;28;20121;-68
2022/04/03 03:31:14;;;;;;;3.75;1.83;;;2.50;99.90;;;;;;4989626;28;20089;-68
2022/04/03 03:33:40;;;;;;;3.20;1.75;;;2.60;99.90;;;;;;4988881;28;20076;-69
2022/04/03 03:36:07;;;;;;;4.10;1.90;;;2.60;99.90;;;;;;4989112;28;20050;-69
2022/04/03 03:38:33;;;;;;;4.78;1.70;;;2.60;99.90;;;;;;4989900;28;20038;-68
2022/04/03 03:40:58;;;;;;;3.20;1.95;;;2.60;99.90;;;;;;4988582;28;20459;-68
2022/04/03 03:43:25;;;;;;;3.00;1.90;;;2.60;99.90;;;;;;4988072;28;20121;-68
2022/04/03 03:45:50;;;;;;;2.85;2.00;;;2.60;99.90;;;;;;4971291;28;20505;-68
2022/04/03 03:48:16;;;;;;;4.35;2.10;;;2.60;99.90;;;;;;4988477;28;20078;-67
2022/04/03 03:50:41;;;;;;;6.72;2.10;;;2.60;99.90;;;;;;4988556;28;20550;-68
2022/04/03 03:53:07;;;;;;;4.03;2.10;;;2.60;99.90;;;;;;4988602;28;20042;-67
2022/04/03 03:55:32;;;;;;;3.95;2.10;;;2.50;99.90;;;;;;4970445;28;20046;-68
2022/04/03 03:57:58;;;;;;;4.88;2.05;;;2.50;99.90;;;;;;4987045;28;20396;-69
2022/04/03 04:00:24;;;;;;;3.95;2.10;;;2.50;99.90;;;;;;4989979;28;20064;-68
2022/04/03 04:02:49;;;;;;;5.13;2.35;;;2.40;99.90;;;;;;4990287;28;20054;-68
2022/04/03 04:05:15;;;;;;;4.90;2.70;;;2.30;99.90;;;;;;4990329;28;20038;-69
2022/04/03 04:07:45;;;;;;;5.35;2.60;;;2.20;99.90;;;;;;4988620;28;20038;-67
2022/04/03 04:10:12;;;;;;;4.40;2.50;;;2.10;99.90;;;;;;4970155;28;20043;-67
2022/04/03 04:12:39;;;;;;;4.53;2.60;;;2.10;99.90;;;;;;4972181;28;20042;-67
2022/04/03 04:15:06;;;;;;;4.55;2.63;;;2.00;99.90;;;;;;4988716;28;20062;-68
2022/04/03 04:17:43;;;;;;;3.85;2.55;;;2.00;99.90;;;;;;4987125;28;20112;-68
2022/04/03 04:20:13;;;;;;;6.10;3.00;;;1.90;99.90;;;;;;4988651;28;20081;-68
2022/04/03 04:22:40;;;;;;;8.63;3.60;;;1.90;99.90;;;;;;4988401;28;20054;-68
2022/04/03 04:25:07;;;;;;;7.93;3.60;;;1.90;99.90;;;;;;4987172;28;20093;-67
2022/04/03 04:27:32;;;;;;;6.30;2.97;;;1.50;99.90;;;;;;4987290;28;20050;-67
2022/04/03 04:29:58;;;;;;;4.93;2.75;;;1.80;99.90;;;;;;4988243;28;20488;-68
2022/04/03 04:32:24;;;;;;;6.60;2.78;;;1.90;99.90;;;;;;4988956;28;20038;-67
2022/04/03 04:34:50;;;;;;;4.18;2.58;;;1.90;99.90;;;;;;4988573;28;20038;-67
2022/04/03 04:37:17;;;;;;;4.30;2.47;;;1.90;99.90;;;;;;4988657;28;20048;-68
2022/04/03 04:39:43;;;;;;;5.15;2.80;;;2.00;99.90;;;;;;4987946;28;20046;-68
2022/04/03 04:42:09;;;;;;;5.35;2.80;;;1.90;99.90;;;;;;4988024;28;20589;-69
2022/04/03 04:44:34;;;;;;;4.00;2.85;;;1.90;99.90;;;;;;4988214;28;20117;-69
2022/04/03 04:47:00;;;;;;;7.07;2.97;;;1.90;99.90;;;;;;4970960;28;20177;-68
2022/04/03 04:49:26;;;;;;;5.70;2.55;;;1.90;99.90;;;;;;4989862;28;20039;-68
2022/04/03 04:51:51;;;;;;;4.57;2.70;;;1.80;99.90;;;;;;4991081;28;20046;-68
2022/04/03 04:54:17;;;;;;;5.10;2.70;;;1.80;99.90;;;;;;4975575;28;20042;-69
2022/04/03 04:56:43;;;;;;;5.53;2.70;;;2.10;99.90;;;;;;4990643;28;20068;-68
2022/04/03 04:59:08;;;;;;;7.18;3.03;;;1.70;99.90;;;;;;4991540;28;20042;-67
2022/04/03 05:01:34;;;;;;;5.82;2.67;;;1.70;99.90;;;;;;4991864;28;20042;-68
2022/04/03 05:04:00;;;;;;;3.80;2.50;;;1.70;99.90;;;;;;4992898;28;20046;-68
2022/04/03 05:06:27;;;;;;;6.70;2.72;;;1.70;99.90;;;;;;4991350;28;20054;-68
2022/04/03 05:08:54;;;;;;;5.30;3.00;;;1.70;99.90;;;;;;4992172;28;20064;-68
2022/04/03 05:11:20;;;;;;;5.93;2.95;;;1.70;99.90;;;;;;4991264;28;20073;-68
2022/04/03 05:13:46;;;;;;;7.57;3.00;;;1.70;99.90;;;;;;4973487;28;20525;-68
2022/04/03 05:16:12;;;;;;;5.00;2.75;;;1.60;99.90;;;;;;4979973;28;20062;-67
2022/04/03 05:18:39;;;;;;;5.00;2.90;;;1.60;99.90;;;;;;4974571;28;20050;-68
2022/04/03 05:21:07;;;;;;;4.85;2.80;;;1.70;99.90;;;;;;4991705;28;20407;-68
2022/04/03 05:23:32;;;;;;;5.72;2.70;;;1.70;99.90;;;;;;4991245;28;20054;-68
2022/04/03 05:25:58;;;;;;;6.85;2.92;;;1.70;99.90;;;;;;4991326;28;20084;-68
2022/04/03 05:28:26;;;;;;;4.93;2.72;;;1.60;99.90;;;;;;4990182;28;20133;-68
2022/04/03 05:30:52;;;;;;;7.13;3.17;;;1.60;99.90;;;;;;4973335;28;20054;-68
2022/04/03 05:33:18;;;;;;;5.40;3.00;;;1.60;99.90;;;;;;4975076;28;20419;-68
2022/04/03 05:35:43;;;;;;;6.18;2.88;;;1.60;99.90;;;;;;4990303;28;20077;-68
2022/04/03 05:38:09;;;;;;;5.07;2.83;;;1.80;99.90;;;;;;4991450;28;20034;-68
2022/04/03 05:40:34;;;;;;;6.80;2.90;;;1.90;99.90;;;;;;4973725;28;20046;-68
2022/04/03 05:43:00;;;;;;;4.88;3.00;;;1.90;99.90;;;;;;4988571;28;20137;-67
2022/04/03 05:45:26;;;;;;;4.75;2.78;;;1.90;99.90;;;;;;4992342;28;20124;-67
2022/04/03 05:47:53;;;;;;;4.75;2.70;;;2.00;99.90;;;;;;4972445;28;20403;-67
2022/04/03 05:50:19;;;;;;;4.40;2.83;;;2.00;99.90;;;;;;4991686;28;20076;-67
2022/04/03 05:52:50;;;;;;;5.05;3.15;;;2.10;99.90;;;;;;4986155;28;20457;-67
2022/04/03 05:55:18;;;;;;;5.40;3.10;;;2.00;99.90;;;;;;4989734;28;20049;-68
2022/04/03 05:57:45;;;;;;;4.97;3.28;;;2.00;99.90;;;;;;4989202;28;20042;-68
2022/04/03 06:00:12;;;;;;;5.80;2.75;;;2.00;99.90;;;;;;4991455;28;20060;-67
2022/04/03 06:02:52;;;;;;;5.65;3.05;;;2.00;99.90;;;;;;4989323;28;20046;-68
2022/04/03 06:05:22;;;;;;;7.60;3.00;;;2.10;99.90;;;;;;4991146;28;20046;-67
2022/04/03 06:07:48;;;;;;;4.65;3.10;;;2.20;99.90;;;;;;4990862;28;20109;-67
2022/04/03 06:10:14;;;;;;;6.38;3.00;;;2.30;99.90;;;;;;4973174;28;20130;-68
2022/04/03 06:12:55;;;;;;;8.25;3.13;;;2.40;99.90;;;;;;4989476;28;20042;-68
2022/04/03 06:15:22;;;;;;;5.85;3.17;;;2.50;99.90;;;;;;4991195;28;20050;-68
2022/04/03 06:17:49;;;;;;;5.43;2.83;;;2.60;99.90;;;;;;4972496;28;20038;-68
2022/04/03 06:20:14;;;;;;;6.03;2.90;;;2.60;99.90;;;;;;4973553;28;20046;-68
2022/04/03 06:22:40;;;;;;;4.40;2.63;;;2.60;99.90;;;;;;4990720;28;20039;-68
2022/04/03 06:25:07;;;;;;;5.07;2.83;;;2.70;99.90;;;;;;4989993;28;20057;-68
2022/04/03 06:27:33;;;;;;;6.38;2.92;;;2.80;99.90;;;;;;4989243;28;20042;-68
2022/04/03 06:29:59;;;;;;;6.10;2.97;;;2.80;99.90;;;;;;4990377;28;20088;-68
2022/04/03 06:32:24;;;;;;;4.50;2.90;;;2.90;99.90;;;;;;4975297;28;20074;-68
2022/04/03 06:34:51;;;;;;;5.50;2.97;;;2.90;99.90;;;;;;4991948;28;20054;-68
2022/04/03 06:37:17;;;;;;;8.02;2.80;;;3.00;99.90;;;;;;4990791;28;20500;-68
2022/04/03 06:39:42;;;;;;;4.82;2.60;;;3.00;99.90;;;;;;4988561;28;20054;-68
2022/04/03 06:42:08;;;;;;;6.82;2.65;;;3.10;99.90;;;;;;4989017;28;20153;-68
2022/04/03 06:44:34;;;;;;;5.60;2.83;;;3.20;99.90;;;;;;4989659;28;20043;-68
2022/04/03 06:47:00;;;;;;;4.93;2.58;;;3.40;99.90;;;;;;4972462;28;20042;-68
2022/04/03 06:49:28;;;;;;;6.28;2.40;;;3.60;99.90;;;;;;4991175;28;20042;-68
2022/04/03 06:51:54;;;;;;;4.82;2.50;;;3.70;99.90;;;;;;4972097;28;20065;-68
2022/04/03 06:54:19;;;;;;;5.20;2.50;;;3.80;99.90;;;;;;4990744;28;20042;-68
2022/04/03 06:56:45;;;;;;;5.72;2.00;;;3.90;99.90;;;;;;4990409;28;20045;-68
2022/04/03 06:59:11;;;;;;;6.63;2.25;;;4.00;99.90;;;;;;4990334;28;20034;-68
2022/04/03 07:01:36;;;;;;;3.70;2.17;;;4.20;99.90;;;;;;4971970;28;20129;-68
2022/04/03 07:04:02;;;;;;;5.00;2.35;;;4.40;99.90;;;;;;4990233;28;20057;-68
2022/04/03 07:06:28;;;;;;;5.03;2.30;;;4.50;99.90;;;;;;4989654;28;20046;-68
2022/04/03 07:08:56;;;;;;;4.38;2.00;;;4.80;99.90;;;;;;4972521;28;20328;-67
2022/04/03 07:11:22;;;;;;;5.82;2.05;;;5.30;99.90;;;;;;4988074;28;20093;-67
2022/04/03 07:13:48;;;;;;;4.35;2.22;;;5.90;99.90;;;;;;4988883;28;20387;-68
2022/04/03 07:16:15;;;;;;;2.85;1.95;;;6.00;99.90;;;;;;4991315;28;20399;-68
2022/04/03 07:18:41;;;;;;;2.95;1.83;;;6.20;99.90;;;;;;4990107;28;20046;-67
2022/04/03 07:21:06;;;;;;;2.92;2.03;;;6.20;99.90;;;;;;4971432;28;20050;-67
2022/04/03 07:23:32;;;;;;;4.72;2.10;;;6.40;99.90;;;;;;4989573;28;20061;-67
2022/04/03 07:25:58;;;;;;;4.25;2.00;;;6.30;99.90;;;;;;4989467;28;20348;-67
2022/04/03 07:28:23;;;;;;;3.90;2.15;;;6.30;99.90;;;;;;4988821;28;20425;-67
2022/04/03 07:30:49;;;;;;;6.38;1.90;;;6.40;99.90;;;;;;4974839;28;20127;-67
2022/04/03 07:33:15;;;;;;;3.90;1.98;;;6.30;99.90;;;;;;4980819;28;20085;-68
2022/04/03 07:35:40;;;;;;;3.30;1.80;;;6.30;99.90;;;;;;4989425;28;20038;-68
2022/04/03 07:38:06;;;;;;;3.45;1.70;;;6.20;99.90;;;;;;4989342;28;20050;-68
2022/04/03 07:40:32;;;;;;;3.97;1.30;;;6.30;99.90;;;;;;4986945;28;20480;-68
2022/04/03 07:42:58;;;;;;;2.53;1.42;;;6.30;99.90;;;;;;4970519;28;20561;-68
2022/04/03 07:45:24;;;;;;;2.60;1.30;;;6.30;99.90;;;;;;4972268;28;20405;-68
2022/04/03 07:47:50;;;;;;;5.35;1.42;;;6.30;99.90;;;;;;4988594;28;20042;-68
2022/04/03 07:50:21;;;;;;;2.15;1.30;;;6.40;99.90;;;;;;4989455;28;20053;-69
2022/04/03 07:52:48;;;;;;;3.78;1.42;;;6.60;99.90;;;;;;4988777;28;20046;-69
2022/04/03 07:55:14;;;;;;;2.38;1.33;;;6.50;99.90;;;;;;4971167;28;20529;-70
2022/04/03 07:57:40;;;;;;;2.88;1.40;;;6.50;99.90;;;;;;4987951;28;20121;-69
2022/04/03 08:00:07;;;;;;;3.15;1.60;;;6.60;99.90;;;;;;4984857;28;20047;-68
2022/04/03 08:02:39;;;;;;;3.05;1.58;;;6.70;99.90;;;;;;4951126;28;20050;-69
2022/04/03 08:05:06;;;;;;;2.55;1.40;;;6.80;99.90;;;;;;4969556;28;20367;-68
2022/04/03 08:07:40;;;;;;;2.35;1.50;;;6.90;99.90;;;;;;4976501;28;20057;-69
2022/04/03 08:10:08;;;;;;;5.53;1.75;;;7.00;99.90;;;;;;4984920;28;20069;-68
2022/04/03 08:12:38;;;;;;;3.20;1.95;;;7.20;99.90;;;;;;4948659;28;20047;-68
2022/04/03 08:15:07;;;;;;;3.45;1.75;;;7.40;99.90;;;;;;4981914;28;20039;-68
2022/04/03 08:17:33;;;;;;;4.32;1.63;;;7.60;99.90;;;;;;4964591;28;20038;-68
2022/04/03 08:19:59;;;;;;;4.35;1.65;;;7.70;99.90;;;;;;4948437;28;20348;-68
2022/04/03 08:22:24;;;;;;;3.92;1.70;;;8.70;99.90;;;;;;4986006;28;20038;-67
2022/04/03 08:24:50;;;;;;;4.85;2.20;;;8.00;99.90;;;;;;4985814;28;20127;-68
2022/04/03 08:27:17;;;;;;;3.08;1.70;;;8.20;99.90;;;;;;4987511;28;20050;-67
2022/04/03 08:29:43;;;;;;;2.63;1.52;;;8.40;99.90;;;;;;4987298;28;20038;-68
2022/04/03 08:32:09;;;;;;;5.13;1.70;;;8.60;99.90;;;;;;4988460;28;20046;-68
2022/04/03 08:34:34;;;;;;;3.92;1.67;;;8.80;99.90;;;;;;4988519;28;20061;-69
2022/04/03 08:37:00;;;;;;;4.50;1.90;;;8.90;99.90;;;;;;4987474;28;20054;-70
2022/04/03 08:39:26;;;;;;;4.03;1.60;;;8.80;99.90;;;;;;4990203;28;20493;-69
2022/04/03 08:41:52;;;;;;;6.65;1.77;;;8.80;99.90;;;;;;4986487;28;20116;-68
2022/04/03 08:44:21;;;;;;;4.95;1.60;;;8.90;99.90;;;;;;4989029;28;20371;-68
2022/04/03 08:46:48;;;;;;;4.22;1.85;;;9.20;99.90;;;;;;4990153;28;20387;-69
2022/04/03 08:49:16;;;;;;;5.70;1.60;;;9.20;99.90;;;;;;4991587;28;20136;-68
2022/04/03 08:51:42;;;;;;;4.03;1.70;;;9.40;99.90;;;;;;4989697;28;20069;-67
2022/04/03 08:54:09;;;;;;;2.33;1.40;;;9.60;99.90;;;;;;4972624;28;20043;-70
2022/04/03 08:56:35;;;;;;;4.50;1.48;;;9.90;99.90;;;;;;4967382;28;20574;-69
2022/04/03 08:59:00;;;;;;;5.13;1.60;;;10.40;99.90;;;;;;4986684;28;20046;-68
2022/04/03 09:01:26;;;;;;;5.53;1.50;;;10.90;99.90;;;;;;4966381;28;20463;-69
2022/04/03 09:03:52;;;;;;;3.58;1.38;;;11.20;99.90;;;;;;4979577;28;20549;-67
2022/04/03 09:06:20;;;;;;;4.30;1.60;;;12.90;99.90;;;;;;4945066;28;20038;-68
2022/04/03 09:08:47;;;;;;;3.35;1.52;;;15.20;97.80;;;;;;4969486;28;20438;-69
2022/04/03 09:11:13;;;;;;;2.45;1.30;;;16.50;96.30;;;;;;4988049;28;20145;-68
2022/04/03 09:13:40;;;;;;;5.63;1.60;;;18.30;91.80;;;;;;4987954;28;20464;-70
2022/04/03 09:16:06;;;;;;;3.95;1.38;;;18.20;84.80;;;;;;4987855;28;20039;-68
2022/04/03 09:18:42;;;;;;;4.45;1.20;;;16.20;84.60;;;;;;4987513;28;20054;-68
2022/04/03 09:21:22;;;;;;;2.15;1.20;;;15.20;90.10;;;;;;4969533;28;20042;-69
2022/04/03 09:24:08;;;;;;;6.30;1.65;;;14.20;92.50;;;;;;4987673;28;20062;-69
2022/04/03 09:26:35;;;;;;;4.05;1.50;;;15.30;93.40;;;;;;4985146;28;20493;-70
2022/04/03 09:29:09;;;;;;;2.45;1.38;;;18.90;91.50;;;;;;4988521;28;20384;-69
2022/04/03 09:31:35;;;;;;;4.45;1.52;;;21.90;83.80;;;;;;4989392;28;20237;-70
2022/04/03 09:34:03;;;;;;;2.97;1.17;;;24.10;67.00;;;;;;4981405;28;20042;-68
2022/04/03 09:36:30;;;;;;;3.05;1.10;;;25.20;56.00;;;;;;4981470;28;20160;-69
2022/04/03 09:39:12;;;;;;;3.33;1.20;;;26.50;52.40;;;;;;4982890;28;20038;-68
2022/04/03 09:42:01;;;;;;;2.17;1.08;;;28.10;53.10;;;;;;4982077;28;20073;-68
2022/04/03 09:44:31;;;;;;;2.53;0.85;;;29.00;47.60;;;;;;4987667;28;20159;-68
2022/04/03 09:47:19;;;;;;;2.95;1.10;;;26.60;44.90;;;;;;4956825;28;20325;-69
2022/04/03 09:49:56;;;;;;;2.88;1.20;;;26.40;46.00;;;;;;4990956;28;20068;-70
2022/04/03 09:52:35;;;;;;;2.50;1.10;;;27.10;46.30;;;;;;4967361;28;20039;-71
2022/04/03 09:55:23;;;;;;;2.88;1.10;;;28.30;46.10;;;;;;4979256;28;20385;-68
2022/04/03 09:58:00;;;;;;;3.80;1.10;;;28.90;43.10;;;;;;4979738;28;20447;-68
2022/04/03 10:00:30;;;;;;;4.88;1.30;;;29.00;44.20;;;;;;4982753;28;20548;-68
2022/04/03 10:02:59;;;;;;;3.03;1.10;;;29.30;44.30;;;;;;4981721;28;20042;-68
2022/04/03 10:05:26;;;;;;;1.77;1.00;;;30.10;43.50;;;;;;4963007;28;20369;-69
2022/04/03 10:07:52;;;;;;;2.50;1.05;;;31.40;42.50;;;;;;4990544;28;20039;-70
2022/04/03 10:10:18;;;;;;;2.10;0.90;;;31.40;41.90;;;;;;4962061;28;20072;-70
2022/04/03 10:12:43;;;;;;;3.40;1.20;;;29.20;41.20;;;;;;4957412;28;20082;-69
2022/04/03 10:15:09;;;;;;;3.08;1.10;;;26.20;42.20;;;;;;4990140;28;20035;-69
2022/04/03 10:17:35;;;;;;;1.92;1.02;;;23.80;44.30;;;;;;4975621;28;20056;-76
2022/04/03 10:20:01;;;;;;;5.47;1.05;;;21.60;46.20;;;;;;4975078;28;20074;-70
2022/04/03 10:22:30;;;;;;;3.50;1.20;;;20.60;48.10;;;;;;4956672;28;20054;-70
2022/04/03 10:25:00;;;;;;;2.88;1.20;;;20.00;49.00;;;;;;4989652;28;20078;-70
2022/04/03 10:27:30;;;;;;;3.08;1.40;;;20.40;51.10;;;;;;4989823;28;20053;-71
2022/04/03 10:29:58;;;;;;;3.53;1.48;;;21.70;50.80;;;;;;4989444;28;20035;-70
2022/04/03 10:32:29;;;;;;;4.43;1.35;;;24.40;49.20;;;;;;4958125;28;20101;-71
2022/04/03 10:35:09;;;;;;;3.67;1.20;;;27.10;46.50;;;;;;4971409;28;20050;-71
2022/04/03 10:37:38;;;;;;;4.25;1.10;;;29.20;44.10;;;;;;4970265;28;20098;-70
2022/04/03 10:40:09;;;;;;;3.05;0.88;;;30.80;41.90;;;;;;4969807;28;20085;-70
2022/04/03 10:42:58;;;;;;;1.95;0.90;;;32.60;39.90;;;;;;4970103;28;20124;-71
2022/04/03 10:45:33;;;;;;;3.88;1.10;;;34.10;39.60;;;;;;4971717;28;20054;-71
2022/04/03 10:48:21;;;;;;;3.53;1.20;;;34.70;38.00;;;;;;4988409;28;20053;-70
2022/04/03 10:51:09;;;;;;;7.15;1.30;;;32.40;37.70;;;;;;4989382;28;20054;-71
2022/04/03 10:53:42;;;;;;;2.88;1.20;;;28.90;38.80;;;;;;4984948;28;20511;-71
2022/04/03 10:56:19;;;;;;;2.92;1.00;;;25.20;41.50;;;;;;4968989;28;20478;-70
2022/04/03 10:58:50;;;;;;;3.30;1.25;;;22.10;46.50;;;;;;4986016;28;20108;-70
2022/04/03 11:01:25;;;;;;;2.03;1.00;;;19.10;50.20;;;;;;4967971;28;20061;-70
2022/04/03 11:04:00;;;;;;;3.45;1.42;;;17.10;55.20;;;;;;4968519;28;20050;-71
2022/04/03 11:06:31;;;;;;;1.10;1.00;;;15.40;60.10;;;;;;4985872;28;20423;-71
2022/04/03 11:09:04;;;;;;;3.47;1.30;;;14.20;69.70;;;;;;4972762;28;20555;-71
2022/04/03 11:11:39;;;;;;;3.17;1.13;;;13.20;91.80;;;;;;4965241;28;20309;-70
2022/04/03 11:14:12;;;;;;;4.20;1.50;;;12.60;98.00;;;;;;4967576;28;20105;-69
2022/04/03 11:16:52;;;;;;;5.30;1.75;;;12.40;99.90;;;;;;4967381;28;20105;-71
2022/04/03 11:19:41;;;;;;;2.20;1.20;;;12.70;99.90;;;;;;4967993;28;20054;-70
2022/04/03 11:22:09;;;;;;;3.28;1.30;;;13.20;98.50;;;;;;4985743;28;20124;-68
2022/04/03 11:24:36;;;;;;;4.80;1.70;;;13.00;97.90;;;;;;4983057;28;20069;-68
2022/04/03 11:27:04;;;;;;;2.97;1.30;;;13.30;96.40;;;;;;4961957;28;20136;-69
2022/04/03 11:29:31;;;;;;;4.68;1.60;;;14.70;95.50;;;;;;4961393;28;20042;-69
2022/04/03 11:31:57;;;;;;;3.95;1.30;;;15.60;92.20;;;;;;4978014;28;20097;-69
2022/04/03 11:34:32;;;;;;;5.18;1.40;;;17.10;85.50;;;;;;4985764;28;20184;-70
2022/04/03 11:37:04;;;;;;;4.70;1.30;;;17.60;74.80;;;;;;4952280;28;20064;-69
2022/04/03 11:39:32;;;;;;;4.15;1.45;;;17.60;74.60;;;;;;4984391;28;20053;-70
2022/04/03 11:42:02;;;;;;;4.10;1.70;;;19.80;72.50;;;;;;4968810;28;20476;-67
2022/04/03 11:44:29;;;;;;;3.53;1.20;;;22.90;65.00;;;;;;4988608;28;20046;-66
2022/04/03 11:46:55;;;;;;;5.68;1.45;;;24.20;53.40;;;;;;4982903;28;20046;-69
2022/04/03 11:49:25;;;;;;;3.60;1.20;;;24.30;52.90;;;;;;4983186;28;20037;-68
2022/04/03 11:51:56;;;;;;;3.58;1.25;;;24.60;52.40;;;;;;4984325;28;20109;-69
2022/04/03 11:54:25;;;;;;;4.13;1.30;;;23.20;50.20;;;;;;4974555;28;20042;-70
2022/04/03 11:56:58;;;;;;;3.92;1.38;;;21.20;52.10;;;;;;4986184;28;20108;-70
2022/04/03 11:59:24;;;;;;;3.53;1.30;;;19.60;54.50;;;;;;4971400;28;20057;-70
2022/04/03 12:01:50;;;;;;;1.92;1.10;;;17.90;56.30;;;;;;4988569;28;20042;-69
2022/04/03 12:04:17;;;;;;;1.80;1.00;;;16.70;58.00;;;;;;4991863;28;20097;-69
2022/04/03 12:06:47;;;;;;;2.95;1.10;;;15.30;60.40;;;;;;4989354;28;20053;-69
2022/04/03 12:09:15;;;;;;;2.75;1.20;;;14.20;63.50;;;;;;4989157;28;20121;-69
2022/04/03 12:11:45;;;;;;;3.53;1.30;;;14.30;72.80;;;;;;4986730;28;20053;-69
2022/04/03 12:14:20;;;;;;;2.65;1.10;;;16.70;72.80;;;;;;4988921;28;20451;-68
2022/04/03 12:16:45;;;;;;;3.40;1.10;;;19.20;66.50;;;;;;4987975;28;20077;-69
2022/04/03 12:19:16;;;;;;;2.75;1.00;;;20.30;61.00;;;;;;4988594;28;20073;-69
2022/04/03 12:21:49;;;;;;;1.98;1.10;;;18.40;60.40;;;;;;4953942;28;20204;-69
2022/04/03 12:24:16;;;;;;;3.05;1.13;;;17.00;62.40;;;;;;4988910;28;20058;-68
2022/04/03 12:26:50;;;;;;;2.45;1.58;;;15.90;65.10;;;;;;4987144;28;20046;-69
2022/04/03 12:29:18;;;;;;;3.45;1.70;;;15.20;68.50;;;;;;4988709;28;20073;-69
2022/04/03 12:31:54;;;;;;;5.25;1.40;;;14.50;72.20;;;;;;4978808;28;20051;-69
2022/04/03 12:34:21;;;;;;;2.35;1.10;;;14.20;78.50;;;;;;4969427;28;20082;-68
2022/04/03 12:36:52;;;;;;;4.25;1.45;;;13.60;83.60;;;;;;4967484;28;20444;-69
2022/04/03 12:39:31;;;;;;;4.15;1.40;;;13.60;89.20;;;;;;4952555;28;20057;-69
2022/04/03 12:42:17;;;;;;;3.63;1.27;;;14.20;89.30;;;;;;4967418;28;20411;-68
2022/04/03 12:44:47;;;;;;;2.92;1.50;;;16.20;87.40;;;;;;4951421;28;20057;-68
2022/04/03 12:47:27;;;;;;;2.75;1.40;;;17.90;79.70;;;;;;4969559;28;20039;-68
2022/04/03 12:50:05;;;;;;;4.00;1.30;;;19.40;71.80;;;;;;4967746;28;20073;-68
2022/04/03 12:52:43;;;;;;;3.30;1.20;;;19.10;68.80;;;;;;4951292;28;20093;-68
2022/04/03 12:55:21;;;;;;;2.92;1.50;;;17.80;70.70;;;;;;4967844;28;20051;-69
2022/04/03 13:01:13;;;;;;;2.63;1.20;;;15.60;80.30;;;;;;4954353;28;20419;-69